createdAt,value
2018-08-30T00:01:22.199Z,87.61
2018-08-30T00:03:49.494Z,86.71
2018-08-30T00:06:16.730Z,86.93
2018-08-30T00:08:43.987Z,86.77
2018-08-30T00:11:11.256Z,86.30
2018-08-30T00:13:38.611Z,86.55
2018-08-30T00:16:05.837Z,86.37
2018-08-30T00:18:33.214Z,85.68
2018-08-30T00:21:00.575Z,85.08
2018-08-30T00:23:27.842Z,85.46
2018-08-30T00:25:55.080Z,84.83
2018-08-30T00:28:22.404Z,85.00
2018-08-30T00:30:49.724Z,85.55
2018-08-30T00:33:16.951Z,86.46
2018-08-30T00:35:44.242Z,86.73
2018-08-30T00:38:11.512Z,86.60
2018-08-30T00:40:38.864Z,86.80
2018-08-30T00:43:06.240Z,87.30
2018-08-30T00:45:33.483Z,87.20
2018-08-30T00:48:00.824Z,86.83
2018-08-30T00:50:28.083Z,87.10
2018-08-30T00:52:55.363Z,87.59
2018-08-30T00:55:22.660Z,87.75
2018-08-30T00:57:49.954Z,87.55
2018-08-30T01:00:17.227Z,87.46
2018-08-30T01:02:44.527Z,86.58
2018-08-30T01:05:11.751Z,86.60
2018-08-30T01:07:39.066Z,86.43
2018-08-30T01:10:06.425Z,86.48
2018-08-30T01:12:36.607Z,86.12
2018-08-30T01:15:04.069Z,85.00
2018-08-30T01:17:31.374Z,83.67
2018-08-30T01:19:58.765Z,84.47
2018-08-30T01:22:26.170Z,84.17
2018-08-30T01:24:53.459Z,84.57
2018-08-30T01:27:20.725Z,84.45
2018-08-30T01:29:48.044Z,83.93
2018-08-30T01:32:15.322Z,84.08
2018-08-30T01:34:42.668Z,85.15
2018-08-30T01:37:10.030Z,85.65
2018-08-30T01:39:37.297Z,85.89
2018-08-30T01:42:04.611Z,86.21
2018-08-30T01:44:31.918Z,86.06
2018-08-30T01:46:59.159Z,85.48
2018-08-30T01:49:26.482Z,86.00
2018-08-30T01:51:53.833Z,87.18
2018-08-30T01:54:21.122Z,87.82
2018-08-30T01:56:48.439Z,87.71
2018-08-30T01:59:15.770Z,87.62
2018-08-30T02:01:43.119Z,88.11
2018-08-30T02:04:10.404Z,87.98
2018-08-30T02:06:37.723Z,88.12
2018-08-30T02:09:05.315Z,87.84
2018-08-30T02:11:32.575Z,87.73
2018-08-30T02:13:59.845Z,87.57
2018-08-30T02:16:27.247Z,86.99
2018-08-30T02:18:54.537Z,87.91
2018-08-30T02:21:21.778Z,87.70
2018-08-30T02:23:49.048Z,88.24
2018-08-30T02:26:16.333Z,89.08
2018-08-30T02:28:43.573Z,89.42
2018-08-30T02:31:10.937Z,89.62
2018-08-30T02:33:38.224Z,89.14
2018-08-30T02:36:05.583Z,88.77
2018-08-30T02:38:32.863Z,88.90
2018-08-30T02:41:00.177Z,88.25
2018-08-30T02:43:27.401Z,89.05
2018-08-30T02:45:54.697Z,88.31
2018-08-30T02:48:21.984Z,88.35
2018-08-30T02:50:49.279Z,89.09
2018-08-30T02:53:16.573Z,89.16
2018-08-30T02:55:43.841Z,89.50
2018-08-30T02:58:11.130Z,88.44
2018-08-30T03:00:38.543Z,89.34
2018-08-30T03:03:05.908Z,89.12
2018-08-30T03:05:33.242Z,88.04
2018-08-30T03:08:00.549Z,88.24
2018-08-30T03:10:27.806Z,88.18
2018-08-30T03:12:55.282Z,88.79
2018-08-30T03:15:22.572Z,87.58
2018-08-30T03:17:49.887Z,88.49
2018-08-30T03:20:17.178Z,88.34
2018-08-30T03:22:44.436Z,88.20
2018-08-30T03:25:11.837Z,88.85
2018-08-30T03:27:39.039Z,89.28
2018-08-30T03:30:07.435Z,89.71
2018-08-30T03:32:34.859Z,89.05
2018-08-30T03:35:02.134Z,88.82
2018-08-30T03:37:29.468Z,88.92
2018-08-30T03:39:56.918Z,89.27
2018-08-30T03:42:24.186Z,89.33
2018-08-30T03:44:51.464Z,89.20
2018-08-30T03:47:18.710Z,89.20
2018-08-30T03:49:45.991Z,89.03
2018-08-30T03:52:21.067Z,89.71
2018-08-30T03:54:48.314Z,89.27
2018-08-30T03:57:15.636Z,89.69
2018-08-30T03:59:42.966Z,89.71
2018-08-30T04:02:10.327Z,89.43
2018-08-30T04:04:37.613Z,88.77
2018-08-30T04:07:05.152Z,89.13
2018-08-30T04:09:32.546Z,88.93
2018-08-30T04:11:59.805Z,88.66
2018-08-30T04:14:27.020Z,89.30
2018-08-30T04:16:54.340Z,88.67
2018-08-30T04:19:27.762Z,88.90
2018-08-30T04:21:55.119Z,88.71
2018-08-30T04:24:22.288Z,88.79
2018-08-30T04:26:49.570Z,88.22
2018-08-30T04:29:16.888Z,87.25
2018-08-30T04:31:44.127Z,87.78
2018-08-30T04:34:11.411Z,86.43
2018-08-30T04:36:38.683Z,86.14
2018-08-30T04:39:07.756Z,86.15
2018-08-30T04:41:35.025Z,86.68
2018-08-30T04:44:02.591Z,86.29
2018-08-30T04:46:29.861Z,86.62
2018-08-30T04:48:57.113Z,86.44
2018-08-30T04:51:24.406Z,86.29
2018-08-30T04:53:51.668Z,85.43
2018-08-30T04:56:18.986Z,86.23
2018-08-30T04:58:46.233Z,87.32
2018-08-30T05:01:13.503Z,87.24
2018-08-30T05:03:40.834Z,86.81
2018-08-30T05:06:08.418Z,86.85
2018-08-30T05:08:35.658Z,87.55
2018-08-30T05:11:02.946Z,88.56
2018-08-30T05:13:30.203Z,87.99
2018-08-30T05:15:57.485Z,88.55
2018-08-30T05:18:24.767Z,88.65
2018-08-30T05:20:52.079Z,88.76
2018-08-30T05:23:19.276Z,89.44
2018-08-30T05:25:46.525Z,88.68
2018-08-30T05:28:13.746Z,89.43
2018-08-30T05:30:41.002Z,88.86
2018-08-30T05:33:08.294Z,89.18
2018-08-30T05:35:35.602Z,88.85
2018-08-30T05:38:02.852Z,88.57
2018-08-30T05:40:30.121Z,88.47
2018-08-30T05:42:57.478Z,89.28
2018-08-30T05:45:24.895Z,89.30
2018-08-30T05:47:52.163Z,90.09
2018-08-30T05:50:19.475Z,89.42
2018-08-30T05:52:46.713Z,89.20
2018-08-30T05:55:14.111Z,89.33
2018-08-30T05:57:41.190Z,88.76
2018-08-30T06:00:08.534Z,88.48
2018-08-30T06:02:35.866Z,88.48
2018-08-30T06:05:03.212Z,88.59
2018-08-30T06:07:30.409Z,88.25
2018-08-30T06:09:57.667Z,87.58
2018-08-30T06:12:25.486Z,87.45
2018-08-30T06:14:53.031Z,88.27
2018-08-30T06:17:20.326Z,88.00
2018-08-30T06:19:47.579Z,89.04
2018-08-30T06:22:14.862Z,90.27
2018-08-30T06:24:42.143Z,91.88
2018-08-30T06:27:09.437Z,91.74
2018-08-30T06:29:36.667Z,91.46
2018-08-30T06:32:04.019Z,93.32
2018-08-30T06:34:31.367Z,93.89
2018-08-30T06:36:58.610Z,94.26
2018-08-30T06:39:25.920Z,94.57
2018-08-30T06:41:53.165Z,94.88
2018-08-30T06:44:20.418Z,96.26
2018-08-30T06:46:47.738Z,95.55
2018-08-30T06:49:15.102Z,95.86
2018-08-30T06:51:42.669Z,95.97
2018-08-30T06:54:10.064Z,95.65
2018-08-30T06:56:37.360Z,94.78
2018-08-30T06:59:04.809Z,93.66
2018-08-30T07:01:32.069Z,93.84
2018-08-30T07:03:59.425Z,93.50
2018-08-30T07:06:26.872Z,91.35
2018-08-30T07:08:54.340Z,92.43
2018-08-30T07:11:21.619Z,91.82
2018-08-30T07:13:48.873Z,90.22
2018-08-30T07:16:16.263Z,90.03
2018-08-30T07:18:43.533Z,88.31
2018-08-30T07:21:42.130Z,86.67
2018-08-30T07:24:09.371Z,87.84
2018-08-30T07:26:36.663Z,85.91
2018-08-30T07:29:04.056Z,84.94
2018-08-30T07:31:31.360Z,85.26
2018-08-30T07:33:58.650Z,84.59
2018-08-30T07:36:25.932Z,84.71
2018-08-30T07:38:53.194Z,85.59
2018-08-30T07:41:20.464Z,83.66
2018-08-30T07:43:47.738Z,84.00
2018-08-30T07:46:15.113Z,84.14
2018-08-30T07:48:42.441Z,84.01
2018-08-30T07:51:09.739Z,84.34
2018-08-30T07:53:36.983Z,84.27
2018-08-30T07:56:04.407Z,85.10
2018-08-30T07:58:31.660Z,84.76
2018-08-30T08:00:58.882Z,84.22
2018-08-30T08:03:26.115Z,83.97
2018-08-30T08:05:53.498Z,84.98
2018-08-30T08:08:20.742Z,82.87
2018-08-30T08:10:48.061Z,83.44
2018-08-30T08:13:15.325Z,82.83
2018-08-30T08:15:42.711Z,83.66
2018-08-30T08:18:10.054Z,83.33
2018-08-30T08:20:37.370Z,82.14
2018-08-30T08:23:04.707Z,81.13
2018-08-30T08:25:32.060Z,81.11
2018-08-30T08:27:59.485Z,80.84
2018-08-30T08:30:26.775Z,80.79
2018-08-30T08:32:54.077Z,80.64
2018-08-30T08:35:21.282Z,79.89
2018-08-30T08:37:48.654Z,80.28
2018-08-30T08:40:15.958Z,81.08
2018-08-30T08:42:43.387Z,81.73
2018-08-30T08:45:10.702Z,79.85
2018-08-30T08:47:38.015Z,80.43
2018-08-30T08:50:05.315Z,79.00
2018-08-30T08:52:32.666Z,77.98
2018-08-30T08:55:00.216Z,77.89
2018-08-30T08:57:27.674Z,77.32
2018-08-30T08:59:55.059Z,76.52
2018-08-30T09:02:22.354Z,74.43
2018-08-30T09:04:49.624Z,72.81
2018-08-30T09:07:17.042Z,71.06
2018-08-30T09:09:44.341Z,69.35
2018-08-30T09:12:11.634Z,67.33
2018-08-30T09:14:39.024Z,66.80
2018-08-30T09:17:06.376Z,66.98
2018-08-30T09:19:33.703Z,66.60
2018-08-30T09:22:01.008Z,65.81
2018-08-30T09:24:28.250Z,64.79
2018-08-30T09:26:55.708Z,63.97
2018-08-30T09:29:22.805Z,62.38
2018-08-30T09:31:50.132Z,62.92
2018-08-30T09:34:17.375Z,63.17
2018-08-30T09:36:44.690Z,63.56
2018-08-30T09:39:11.913Z,65.41
2018-08-30T09:41:39.278Z,63.08
2018-08-30T09:44:06.610Z,63.12
2018-08-30T09:46:33.924Z,62.87
2018-08-30T09:49:01.804Z,61.96
2018-08-30T09:51:28.992Z,62.22
2018-08-30T09:53:56.344Z,62.65
2018-08-30T09:56:23.607Z,63.78
2018-08-30T09:58:50.918Z,64.19
2018-08-30T10:01:23.930Z,63.01
2018-08-30T10:03:51.250Z,61.69
2018-08-30T10:06:18.525Z,58.46
2018-08-30T10:08:45.792Z,57.21
2018-08-30T10:11:13.034Z,57.08
2018-08-30T10:13:40.253Z,57.07
2018-08-30T10:16:07.586Z,56.12
2018-08-30T10:18:34.920Z,55.76
2018-08-30T10:21:02.162Z,54.88
2018-08-30T10:23:29.475Z,53.13
2018-08-30T10:25:56.740Z,53.40
2018-08-30T10:28:24.090Z,54.37
2018-08-30T10:30:51.331Z,53.75
2018-08-30T10:33:18.894Z,55.16
2018-08-30T10:35:46.226Z,54.56
2018-08-30T10:38:13.632Z,51.73
2018-08-30T10:40:40.872Z,50.97
2018-08-30T10:43:08.178Z,51.55
2018-08-30T10:45:35.484Z,51.43
2018-08-30T10:48:02.765Z,52.54
2018-08-30T10:50:30.134Z,52.89
2018-08-30T10:52:57.444Z,53.94
2018-08-30T10:55:24.755Z,56.03
2018-08-30T10:57:52.394Z,56.69
2018-08-30T11:00:19.679Z,57.32
2018-08-30T11:02:47.085Z,56.28
2018-08-30T11:05:14.434Z,53.90
2018-08-30T11:07:41.830Z,52.85
2018-08-30T11:10:09.173Z,54.16
2018-08-30T11:12:36.769Z,55.01
2018-08-30T11:15:04.060Z,58.16
2018-08-30T11:17:31.308Z,59.36
2018-08-30T11:19:58.614Z,60.12
2018-08-30T11:22:26.057Z,60.42
2018-08-30T11:24:53.387Z,60.23
2018-08-30T11:27:20.706Z,57.83
2018-08-30T11:29:47.976Z,54.99
2018-08-30T11:32:15.258Z,53.27
2018-08-30T11:34:42.515Z,53.02
2018-08-30T11:37:09.709Z,51.24
2018-08-30T11:39:36.968Z,50.95
2018-08-30T11:42:05.050Z,52.38
2018-08-30T11:44:32.332Z,50.27
2018-08-30T11:46:59.638Z,51.73
2018-08-30T11:49:26.915Z,50.73
2018-08-30T11:51:54.250Z,49.26
2018-08-30T11:54:21.630Z,50.22
2018-08-30T11:56:48.930Z,50.95
2018-08-30T11:59:16.207Z,51.77
2018-08-30T12:01:43.539Z,50.84
2018-08-30T12:04:11.059Z,49.07
2018-08-30T12:06:38.413Z,49.83
2018-08-30T12:09:08.070Z,49.31
2018-08-30T12:11:36.050Z,49.35
2018-08-30T12:14:03.306Z,48.08
2018-08-30T12:16:30.750Z,48.32
2018-08-30T12:18:58.078Z,48.17
2018-08-30T12:21:25.400Z,48.86
2018-08-30T12:23:52.647Z,47.84
2018-08-30T12:26:20.061Z,46.80
2018-08-30T12:28:47.545Z,47.53
2018-08-30T12:31:14.788Z,48.04
2018-08-30T12:33:42.173Z,47.64
2018-08-30T12:36:09.481Z,49.52
2018-08-30T12:38:36.728Z,48.39
2018-08-30T12:41:04.039Z,47.18
2018-08-30T12:43:31.497Z,45.92
2018-08-30T12:45:58.718Z,45.26
2018-08-30T12:48:25.989Z,44.55
2018-08-30T12:50:53.358Z,43.91
2018-08-30T12:53:20.692Z,43.32
2018-08-30T12:55:48.119Z,44.10
2018-08-30T12:58:15.628Z,43.71
2018-08-30T13:00:42.737Z,43.90
2018-08-30T13:03:10.032Z,44.17
2018-08-30T13:05:37.524Z,44.24
2018-08-30T13:08:04.762Z,42.46
2018-08-30T13:10:32.333Z,42.05
2018-08-30T13:12:59.537Z,43.57
2018-08-30T13:15:26.952Z,44.73
2018-08-30T13:17:54.150Z,44.70
2018-08-30T13:20:21.518Z,44.85
2018-08-30T13:22:48.874Z,44.61
2018-08-30T13:25:16.261Z,44.52
2018-08-30T13:27:43.537Z,45.19
2018-08-30T13:30:10.928Z,45.56
2018-08-30T13:32:38.198Z,46.61
2018-08-30T13:35:05.522Z,46.64
2018-08-30T13:37:33.037Z,45.64
2018-08-30T13:40:00.345Z,46.10
2018-08-30T13:42:28.273Z,45.93
2018-08-30T13:44:55.800Z,46.34
2018-08-30T13:47:22.966Z,45.73
2018-08-30T13:49:50.098Z,47.42
2018-08-30T13:52:17.667Z,47.50
2018-08-30T13:54:44.884Z,47.21
2018-08-30T13:57:12.364Z,47.05
2018-08-30T13:59:39.613Z,47.81
2018-08-30T14:02:06.915Z,47.13
2018-08-30T14:04:34.125Z,47.29
2018-08-30T14:07:01.332Z,46.81
2018-08-30T14:09:28.789Z,45.22
2018-08-30T14:11:56.172Z,44.56
2018-08-30T14:14:23.374Z,42.84
2018-08-30T14:16:50.494Z,42.22
2018-08-30T14:19:17.873Z,43.96
2018-08-30T14:21:45.420Z,44.67
2018-08-30T14:24:12.878Z,45.01
2018-08-30T14:26:40.220Z,44.73
2018-08-30T14:29:07.672Z,44.87
2018-08-30T14:31:34.947Z,45.00
2018-08-30T14:34:02.284Z,45.30
2018-08-30T14:36:29.558Z,45.15
2018-08-30T14:38:56.866Z,45.69
2018-08-30T14:41:24.523Z,44.92
2018-08-30T14:43:51.725Z,44.21
2018-08-30T14:46:18.952Z,44.60
2018-08-30T14:48:46.283Z,43.16
2018-08-30T14:51:13.612Z,43.65
2018-08-30T14:53:41.167Z,45.36
2018-08-30T14:56:08.453Z,45.26
2018-08-30T14:58:35.720Z,45.84
2018-08-30T15:01:03.042Z,45.91
2018-08-30T15:03:30.308Z,45.35
2018-08-30T15:05:59.717Z,45.77
2018-08-30T15:08:27.012Z,46.97
2018-08-30T15:10:54.412Z,49.98
2018-08-30T15:13:21.641Z,52.29
2018-08-30T15:15:49.006Z,52.28
2018-08-30T15:18:16.309Z,52.17
2018-08-30T15:20:43.601Z,51.84
2018-08-30T15:23:10.949Z,52.24
2018-08-30T15:25:38.338Z,51.76
2018-08-30T15:28:06.849Z,52.82
2018-08-30T15:30:34.107Z,52.21
2018-08-30T15:33:01.462Z,52.24
2018-08-30T15:35:28.968Z,52.57
2018-08-30T15:37:56.256Z,54.10
2018-08-30T15:40:23.581Z,54.11
2018-08-30T15:42:50.900Z,54.88
2018-08-30T15:45:18.340Z,55.53
2018-08-30T15:47:45.633Z,55.67
2018-08-30T15:50:12.997Z,56.08
2018-08-30T15:52:40.408Z,55.74
2018-08-30T15:55:07.646Z,56.27
2018-08-30T15:57:35.001Z,56.80
2018-08-30T16:00:02.443Z,57.14
2018-08-30T16:02:29.842Z,57.78
2018-08-30T16:04:57.133Z,58.44
2018-08-30T16:07:24.397Z,58.95
2018-08-30T16:09:51.736Z,58.98
2018-08-30T16:12:19.001Z,59.00
2018-08-30T16:14:46.308Z,59.41
2018-08-30T16:17:14.638Z,59.48
2018-08-30T16:19:42.130Z,60.02
2018-08-30T16:22:09.390Z,61.48
2018-08-30T16:24:36.703Z,61.38
2018-08-30T16:27:04.015Z,61.71
2018-08-30T16:29:32.067Z,61.59
2018-08-30T16:31:59.285Z,61.40
2018-08-30T16:34:26.664Z,61.74
2018-08-30T16:36:53.849Z,61.93
2018-08-30T16:39:21.143Z,61.95
2018-08-30T16:41:48.489Z,61.96
2018-08-30T16:44:16.046Z,62.76
2018-08-30T16:46:43.363Z,63.56
2018-08-30T16:49:10.655Z,64.20
2018-08-30T16:51:38.025Z,64.32
2018-08-30T16:54:05.305Z,63.86
2018-08-30T16:56:32.650Z,63.97
2018-08-30T16:58:59.951Z,63.42
2018-08-30T17:01:27.244Z,63.25
2018-08-30T17:03:54.511Z,63.95
2018-08-30T17:06:21.866Z,63.92
2018-08-30T17:08:49.209Z,64.30
2018-08-30T17:11:16.431Z,64.45
2018-08-30T17:13:43.710Z,64.83
2018-08-30T17:16:10.992Z,65.35
2018-08-30T17:18:38.736Z,66.08
2018-08-30T17:21:06.077Z,65.86
2018-08-30T17:23:33.445Z,66.29
2018-08-30T17:26:00.659Z,65.79
2018-08-30T17:28:28.035Z,65.86
2018-08-30T17:30:55.394Z,66.19
2018-08-30T17:33:23.322Z,66.00
2018-08-30T17:35:50.686Z,66.51
2018-08-30T17:38:18.017Z,66.87
2018-08-30T17:40:45.389Z,67.03
2018-08-30T17:43:12.618Z,66.99
2018-08-30T17:45:39.916Z,67.27
2018-08-30T17:48:07.180Z,67.52
2018-08-30T17:50:35.233Z,67.76
2018-08-30T17:53:02.396Z,68.11
2018-08-30T17:55:29.652Z,67.67
2018-08-30T17:57:57.088Z,68.39
2018-08-30T18:00:24.407Z,69.60
2018-08-30T18:02:51.682Z,69.52
2018-08-30T18:05:19.114Z,69.26
2018-08-30T18:07:46.314Z,69.50
2018-08-30T18:10:13.674Z,69.43
2018-08-30T18:12:40.951Z,69.25
2018-08-30T18:15:10.066Z,68.79
2018-08-30T18:17:37.366Z,68.99
2018-08-30T18:20:05.242Z,69.64
2018-08-30T18:22:32.596Z,70.22
2018-08-30T18:24:59.960Z,70.41
2018-08-30T18:27:27.219Z,69.84
2018-08-30T18:29:54.503Z,69.42
2018-08-30T18:32:21.881Z,69.86
2018-08-30T18:34:49.155Z,70.00
2018-08-30T18:37:16.500Z,69.84
2018-08-30T18:39:43.822Z,70.73
2018-08-30T18:42:11.220Z,70.06
2018-08-30T18:44:38.444Z,70.44
2018-08-30T18:47:05.846Z,70.67
2018-08-30T18:49:33.253Z,71.02
2018-08-30T18:52:00.518Z,71.05
2018-08-30T18:54:27.781Z,71.37
2018-08-30T18:56:55.091Z,71.84
2018-08-30T18:59:22.433Z,71.83
2018-08-30T19:01:49.910Z,72.56
2018-08-30T19:04:17.182Z,72.42
2018-08-30T19:06:44.508Z,72.99
2018-08-30T19:09:12.269Z,72.87
2018-08-30T19:11:40.040Z,73.02
2018-08-30T19:14:07.480Z,72.74
2018-08-30T19:16:40.562Z,72.48
2018-08-30T19:19:12.751Z,72.89
2018-08-30T19:21:40.121Z,73.08
2018-08-30T19:24:11.966Z,73.55
2018-08-30T19:26:39.263Z,74.06
2018-08-30T19:29:06.743Z,73.70
2018-08-30T19:31:34.095Z,73.85
2018-08-30T19:34:01.490Z,74.42
2018-08-30T19:36:29.915Z,74.14
2018-08-30T19:38:57.298Z,74.07
2018-08-30T19:41:24.601Z,75.20
2018-08-30T19:43:52.615Z,74.74
2018-08-30T19:46:20.859Z,74.86
2018-08-30T19:48:48.146Z,74.41
2018-08-30T19:51:15.485Z,74.89
2018-08-30T19:53:42.782Z,75.18
2018-08-30T19:56:11.095Z,75.50
2018-08-30T19:58:38.405Z,75.63
2018-08-30T20:01:05.817Z,75.44
2018-08-30T20:03:33.191Z,75.12
2018-08-30T20:06:02.366Z,76.18
2018-08-30T20:08:29.737Z,76.00
2018-08-30T20:10:57.043Z,75.69
2018-08-30T20:13:24.359Z,76.35
2018-08-30T20:15:52.479Z,76.50
2018-08-30T20:18:19.641Z,76.66
2018-08-30T20:20:47.012Z,76.82
2018-08-30T20:23:14.379Z,76.90
2018-08-30T20:25:41.673Z,75.77
2018-08-30T20:28:08.895Z,76.25
2018-08-30T20:30:36.290Z,75.73
2018-08-30T20:33:03.817Z,76.49
2018-08-30T20:35:31.092Z,77.05
2018-08-30T20:37:58.364Z,77.78
2018-08-30T20:40:25.834Z,77.39
2018-08-30T20:42:53.137Z,77.68
2018-08-30T20:45:20.422Z,77.23
2018-08-30T20:47:47.776Z,77.10
2018-08-30T20:50:15.050Z,77.21
2018-08-30T20:52:42.414Z,77.60
2018-08-30T20:55:09.832Z,77.40
2018-08-30T20:57:37.165Z,77.68
2018-08-30T21:00:04.746Z,78.02
2018-08-30T21:02:32.019Z,78.54
2018-08-30T21:04:59.318Z,79.05
2018-08-30T21:07:26.695Z,78.70
2018-08-30T21:09:54.013Z,78.54
2018-08-30T21:12:21.255Z,78.79
2018-08-30T21:14:48.501Z,78.96
2018-08-30T21:17:15.737Z,79.27
2018-08-30T21:19:43.090Z,79.01
2018-08-30T21:22:10.449Z,78.68
2018-08-30T21:24:37.776Z,78.92
2018-08-30T21:27:05.239Z,78.54
2018-08-30T21:29:32.547Z,78.89
2018-08-30T21:31:59.819Z,78.56
2018-08-30T21:34:27.148Z,78.58
2018-08-30T21:36:54.481Z,78.10
2018-08-30T21:39:21.792Z,77.93
2018-08-30T21:41:49.120Z,78.96
2018-08-30T21:44:16.400Z,78.80
2018-08-30T21:46:43.734Z,79.80
2018-08-30T21:49:11.346Z,80.25
2018-08-30T21:51:38.738Z,79.67
2018-08-30T21:54:06.131Z,78.70
2018-08-30T21:56:33.461Z,78.83
2018-08-30T21:59:00.737Z,78.78
2018-08-30T22:01:28.019Z,79.36
2018-08-30T22:03:55.380Z,79.04
2018-08-30T22:06:22.737Z,79.21
2018-08-30T22:08:49.983Z,79.62
2018-08-30T22:11:17.382Z,79.77
2018-08-30T22:13:44.655Z,79.51
2018-08-30T22:16:11.868Z,80.33
2018-08-30T22:18:39.118Z,79.79
2018-08-30T22:21:06.443Z,80.16
2018-08-30T22:23:33.806Z,80.00
2018-08-30T22:26:01.270Z,79.85
2018-08-30T22:28:28.533Z,80.00
2018-08-30T22:30:55.805Z,79.21
2018-08-30T22:33:23.110Z,79.49
2018-08-30T22:35:50.406Z,80.04
2018-08-30T22:38:17.715Z,79.65
2018-08-30T22:40:45.009Z,80.04
2018-08-30T22:43:12.290Z,79.50
2018-08-30T22:45:39.540Z,79.12
2018-08-30T22:48:06.793Z,80.14
2018-08-30T22:50:34.888Z,80.25
2018-08-30T22:53:02.126Z,80.67
2018-08-30T22:55:29.451Z,80.66
2018-08-30T22:57:56.761Z,81.53
2018-08-30T23:00:24.106Z,81.66
2018-08-30T23:02:51.415Z,81.26
2018-08-30T23:05:19.419Z,82.22
2018-08-30T23:07:46.715Z,82.37
2018-08-30T23:10:14.098Z,82.40
2018-08-30T23:12:41.382Z,82.15
2018-08-30T23:15:08.664Z,82.47
2018-08-30T23:17:35.930Z,81.99
2018-08-30T23:20:03.473Z,81.97
2018-08-30T23:22:30.733Z,81.76
2018-08-30T23:24:58.063Z,81.89
2018-08-30T23:27:25.301Z,82.28
2018-08-30T23:29:52.659Z,81.82
2018-08-30T23:32:19.982Z,81.44
2018-08-30T23:34:47.498Z,81.68
2018-08-30T23:37:14.773Z,81.43
2018-08-30T23:39:42.068Z,81.78
2018-08-30T23:42:09.439Z,81.28
2018-08-30T23:44:36.703Z,81.37
2018-08-30T23:47:04.010Z,81.61
2018-08-30T23:49:31.310Z,81.30
2018-08-30T23:51:58.640Z,81.60
2018-08-30T23:54:25.949Z,81.07
2018-08-30T23:56:53.260Z,81.21
2018-08-30T23:59:32.076Z,81.44
